Time;durP1;ratioP1;P1;durP2;ratioP2;P2;SDS_P1;SDS_P2;PMS_P1;PMS_P2;Temp;Humidity;BMP_temperature;BMP_pressure;BME280_temperature;BME280_humidity;BME280_pressure;Samples;Min_cycle;Max_cycle;Signal;HPM_P1;HPM_P2
2022/12/26 00:02:31;;;;;;;42.80;31.17;;;;;;;8.63;100.00;100846.84;5265436;28;20025;-67
2022/12/26 00:05:02;;;;;;;38.90;30.13;;;;;;;8.65;100.00;100852.91;5265440;28;20116;-67
2022/12/26 00:07:34;;;;;;;40.93;30.17;;;;;;;8.68;100.00;100850.31;5265662;28;20089;-67
2022/12/26 00:10:06;;;;;;;46.13;33.20;;;;;;;8.71;100.00;100847.66;5265698;28;20498;-67
2022/12/26 00:12:37;;;;;;;43.63;30.70;;;;;;;8.72;100.00;100855.47;5265401;28;20036;-68
2022/12/26 00:15:08;;;;;;;46.53;33.07;;;;;;;8.71;100.00;100860.66;5265345;28;20036;-67
2022/12/26 00:17:40;;;;;;;44.10;31.37;;;;;;;8.73;100.00;100845.94;5265500;28;20025;-67
2022/12/26 00:20:11;;;;;;;42.90;32.67;;;;;;;8.77;100.00;100860.66;5265431;28;20033;-67
2022/12/26 00:22:43;;;;;;;46.33;32.47;;;;;;;8.75;100.00;100867.59;5265058;28;20036;-67
2022/12/26 00:25:14;;;;;;;43.63;32.37;;;;;;;8.74;100.00;100869.34;5265189;28;20068;-67
2022/12/26 00:27:45;;;;;;;47.87;34.00;;;;;;;8.73;100.00;100874.53;5265086;28;20040;-67
2022/12/26 00:30:17;;;;;;;45.13;33.50;;;;;;;8.77;100.00;100876.25;5264985;28;20495;-68
2022/12/26 00:32:48;;;;;;;46.43;34.10;;;;;;;8.73;100.00;100880.59;5264224;28;20044;-67
2022/12/26 00:35:19;;;;;;;43.73;34.13;;;;;;;8.73;100.00;100884.94;5264264;28;20204;-67
2022/12/26 00:37:51;;;;;;;48.33;35.60;;;;;;;8.71;100.00;100882.34;5264642;28;20032;-67
2022/12/26 00:40:22;;;;;;;48.63;35.07;;;;;;;8.72;100.00;100894.44;5265136;28;20094;-67
2022/12/26 00:42:53;;;;;;;47.90;34.90;;;;;;;8.71;100.00;100881.47;5264209;28;20076;-67
2022/12/26 00:45:25;;;;;;;49.40;37.63;;;;;;;8.69;100.00;100873.66;5264703;28;20384;-67
2022/12/26 00:47:56;;;;;;;45.30;35.50;;;;;;;8.69;100.00;100883.19;5264765;28;20143;-68
2022/12/26 00:50:28;;;;;;;46.27;34.00;;;;;;;8.69;100.00;100889.25;5264568;28;20471;-67
2022/12/26 00:52:59;;;;;;;37.27;30.63;;;;;;;8.68;100.00;100890.16;5264643;28;20060;-67
2022/12/26 00:55:31;;;;;;;39.77;32.87;;;;;;;8.67;100.00;100890.16;5263176;28;20033;-67
2022/12/26 00:58:02;;;;;;;40.93;33.63;;;;;;;8.66;100.00;100894.50;5264720;28;20033;-67
2022/12/26 01:00:34;;;;;;;39.60;31.93;;;;;;;8.65;100.00;100892.75;5265485;28;20076;-66
2022/12/26 01:03:07;;;;;;;39.97;31.95;;;;;;;8.67;100.00;100904.00;5264876;28;20529;-69
2022/12/26 01:05:43;;;;;;;39.10;31.50;;;;;;;8.67;100.00;100890.16;5264262;28;20044;-66
2022/12/26 01:08:16;;;;;;;40.47;31.30;;;;;;;8.65;100.00;100876.31;5264268;28;20029;-67
2022/12/26 01:10:48;;;;;;;39.13;30.17;;;;;;;8.68;100.00;100892.75;5264415;28;20068;-67
2022/12/26 01:13:20;;;;;;;39.40;31.60;;;;;;;8.63;100.00;100901.41;5264615;28;20060;-68
2022/12/26 01:15:52;;;;;;;42.00;33.67;;;;;;;8.64;100.00;100903.16;5264125;28;20043;-67
2022/12/26 01:18:24;;;;;;;43.95;33.88;;;;;;;8.66;100.00;100909.19;5264480;28;20171;-67
2022/12/26 01:21:04;;;;;;;37.83;31.30;;;;;;;8.68;100.00;100916.13;5264393;28;20120;-67
2022/12/26 01:23:35;;;;;;;40.70;33.35;;;;;;;8.67;100.00;100914.41;5264423;28;20025;-67
2022/12/26 01:26:07;;;;;;;42.00;33.10;;;;;;;8.63;100.00;100904.91;5264010;28;20036;-67
2022/12/26 01:28:38;;;;;;;41.37;31.93;;;;;;;8.66;100.00;100899.69;5263890;28;20118;-67
2022/12/26 01:31:09;;;;;;;43.17;33.57;;;;;;;8.61;100.00;100893.63;5263860;28;20495;-67
2022/12/26 01:33:41;;;;;;;40.07;31.57;;;;;;;8.62;100.00;100905.75;5263802;28;20104;-67
2022/12/26 01:36:14;;;;;;;37.40;30.90;;;;;;;8.61;100.00;100906.59;5263786;28;20025;-67
2022/12/26 01:38:45;;;;;;;;;;;;;;;8.66;100.00;100907.50;5264053;28;20040;-67
2022/12/26 01:41:18;;;;;;;37.95;31.17;;;;;;;8.60;100.00;100899.69;5263626;28;19916;-67
2022/12/26 01:43:56;;;;;;;35.33;30.65;;;;;;;8.60;100.00;100904.91;5263356;28;20076;-67
2022/12/26 01:46:37;;;;;;;35.58;29.52;;;;;;;8.53;100.00;100911.84;5263601;28;20469;-68
2022/12/26 01:49:18;;;;;;;29.10;25.33;;;;;;;8.48;100.00;100913.56;5263533;28;20487;-68
2022/12/26 01:51:56;;;;;;;31.13;27.25;;;;;;;8.40;100.00;100910.09;5262399;28;20041;-68
2022/12/26 01:54:32;;;;;;;30.90;27.55;;;;;;;8.36;100.00;100904.03;5263438;28;20032;-68
2022/12/26 01:57:15;;;;;;;31.05;26.17;;;;;;;8.33;100.00;100910.97;5263447;28;20399;-68
2022/12/26 01:59:48;;;;;;;29.37;25.70;;;;;;;8.25;100.00;100916.19;5262805;28;20047;-68
2022/12/26 02:02:21;;;;;;;27.42;24.58;;;;;;;8.20;100.00;100910.13;5263408;28;20025;-68
2022/12/26 02:07:45;;;;;;;27.38;24.45;;;;;;;8.18;100.00;100917.06;5263129;28;20469;-67
2022/12/26 02:10:21;;;;;;;29.35;24.33;;;;;;;8.21;100.00;100914.44;5263320;28;20025;-68
2022/12/26 02:12:52;;;;;;;27.60;24.63;;;;;;;8.24;100.00;100916.19;5263505;28;20025;-67
2022/12/26 02:15:24;;;;;;;25.80;23.00;;;;;;;8.28;100.00;100918.78;5263224;28;20029;-68
2022/12/26 02:17:56;;;;;;;25.83;22.92;;;;;;;8.33;100.00;100919.63;5262877;28;20476;-67
2022/12/26 02:20:32;;;;;;;25.50;22.90;;;;;;;8.36;100.00;100924.81;5263383;28;20065;-68
2022/12/26 02:23:06;;;;;;;26.45;23.10;;;;;;;8.35;100.00;100917.88;5262660;28;20028;-68
2022/12/26 02:25:38;;;;;;;26.52;21.90;;;;;;;8.38;100.00;100923.09;5262546;28;20029;-68
2022/12/26 02:28:37;;;;;;;25.17;21.07;;;;;;;8.39;100.00;100922.22;5261901;28;20029;-68
2022/12/26 02:31:12;;;;;;;23.83;21.33;;;;;;;8.40;100.00;100921.38;5262831;28;20452;-68
2022/12/26 02:33:47;;;;;;;22.60;20.25;;;;;;;8.42;100.00;100916.19;5262069;28;20025;-68
2022/12/26 02:36:39;;;;;;;22.70;20.27;;;;;;;8.43;100.00;100911.84;5262551;28;20036;-68
2022/12/26 02:39:29;;;;;;;24.95;19.85;;;;;;;8.45;100.00;100923.97;5262596;28;20040;-68
2022/12/26 02:42:22;;;;;;;22.45;20.00;;;;;;;8.43;100.00;100915.31;5261665;28;20036;-68
2022/12/26 02:48:34;;;;;;;23.30;20.00;;;;;;;8.49;100.00;100941.28;5261920;28;20037;-67
2022/12/26 03:13:09;;;;;;;20.10;18.00;;;;;;;8.52;100.00;100937.84;5262150;28;20131;-66
2022/12/26 03:13:12;;;;;;;17.63;15.73;;;;;;;8.18;100.00;100928.31;5262327;28;20036;-67
2022/12/26 03:15:17;;;;;;;14.38;12.98;;;;;;;8.17;100.00;100931.75;5248764;28;20036;-66
2022/12/26 03:18:01;;;;;;;15.25;13.65;;;;;;;8.23;100.00;100951.69;5262296;28;20052;-67
2022/12/26 03:20:35;;;;;;;14.38;12.45;;;;;;;8.30;100.00;100937.81;5262034;28;20029;-67
2022/12/26 03:23:11;;;;;;;15.52;13.93;;;;;;;8.32;100.00;100937.81;5261813;28;20047;-67
2022/12/26 03:28:50;;;;;;;13.85;12.43;;;;;;;8.37;100.00;100920.47;5262325;28;20124;-67
2022/12/26 03:31:21;;;;;;;13.50;12.10;;;;;;;8.38;100.00;100919.63;5261148;28;20120;-67
2022/12/26 03:34:17;;;;;;;12.37;11.17;;;;;;;8.39;100.00;100906.63;5261903;28;20033;-67
2022/12/26 03:37:22;;;;;;;12.60;11.30;;;;;;;8.37;100.00;100910.97;5261826;28;20057;-67
2022/12/26 04:20:33;;;;;;;11.30;9.25;;;;;;;8.22;100.00;100963.78;5265532;28;20033;-67
2022/12/26 04:46:25;;;;;;;11.07;9.65;;;;;;;8.10;100.00;100935.25;5265153;28;20033;-67
2022/12/26 04:51:47;;;;;;;10.35;9.25;;;;;;;8.04;100.00;100936.09;5264642;28;20041;-67
2022/12/26 04:54:19;;;;;;;11.90;10.23;;;;;;;8.02;100.00;100921.41;5264561;28;20029;-68
2022/12/26 04:56:50;;;;;;;11.10;9.47;;;;;;;8.00;100.00;100929.19;5264545;28;20029;-67
2022/12/26 04:59:22;;;;;;;12.00;9.60;;;;;;;8.03;100.00;100925.72;5264516;28;20049;-67
2022/12/26 05:10:39;;;;;;;12.00;10.32;;;;;;;7.90;100.00;100937.81;5264851;28;20053;-67
2022/12/26 05:13:11;;;;;;;13.07;11.77;;;;;;;7.92;100.00;100949.09;5263409;28;20334;-67
2022/12/26 05:29:52;;;;;;;12.50;9.13;;;;;;;7.81;100.00;100951.66;5264176;28;20037;-67
2022/12/26 05:35:13;;;;;;;10.57;9.45;;;;;;;7.85;100.00;100944.75;5263907;28;20028;-67
2022/12/26 05:37:45;;;;;;;10.27;8.83;;;;;;;7.81;100.00;100945.63;5263764;28;20029;-67
2022/12/26 05:40:16;;;;;;;10.20;9.00;;;;;;;7.81;100.00;100930.03;5263700;28;20472;-67
2022/12/26 05:42:48;;;;;;;10.10;8.73;;;;;;;7.78;100.00;100927.44;5263864;28;20082;-67
2022/12/26 05:45:19;;;;;;;9.17;8.27;;;;;;;7.76;100.00;100921.38;5263551;28;20061;-68
2022/12/26 05:47:58;;;;;;;10.43;8.53;;;;;;;7.83;100.00;100916.19;5263654;28;20037;-67
2022/12/26 05:50:30;;;;;;;11.23;8.77;;;;;;;7.78;100.00;100911.88;5263463;28;20040;-67
2022/12/26 05:53:02;;;;;;;11.70;8.03;;;;;;;7.75;100.00;100912.72;5263738;28;20036;-67
2022/12/26 05:55:34;;;;;;;11.55;8.05;;;;;;;7.75;100.00;100906.69;5263315;28;20456;-67
2022/12/26 05:58:05;;;;;;;9.50;8.50;;;;;;;7.73;100.00;100916.16;5263259;28;20082;-67
2022/12/26 06:00:36;;;;;;;11.53;8.43;;;;;;;7.70;100.00;100918.78;5263955;28;20049;-67
2022/12/26 06:03:08;;;;;;;9.53;8.50;;;;;;;7.70;100.00;100919.66;5263164;28;20077;-67
2022/12/26 06:05:39;;;;;;;9.60;8.27;;;;;;;7.72;100.00;100920.50;5263323;28;20117;-67
2022/12/26 06:08:10;;;;;;;10.83;8.70;;;;;;;7.73;100.00;100931.75;5263182;28;20039;-67
2022/12/26 06:10:42;;;;;;;9.77;7.53;;;;;;;7.81;100.00;100936.09;5262846;28;20534;-67
2022/12/26 06:13:13;;;;;;;11.40;7.57;;;;;;;7.84;100.00;100953.38;5263046;28;20041;-67
2022/12/26 06:15:44;;;;;;;10.13;7.87;;;;;;;7.93;100.00;100948.19;5262920;28;20108;-69
2022/12/26 06:18:16;;;;;;;8.80;7.17;;;;;;;7.95;100.00;100946.50;5262668;28;20032;-67
2022/12/26 06:20:47;;;;;;;8.80;7.07;;;;;;;8.06;100.00;100958.59;5263748;28;20036;-67
2022/12/26 06:23:18;;;;;;;10.07;7.20;;;;;;;8.08;100.00;100967.25;5262826;28;20024;-68
2022/12/26 06:25:55;;;;;;;8.97;6.40;;;;;;;8.06;100.00;100962.06;5262882;28;20116;-67
2022/12/26 06:28:27;;;;;;;7.45;6.18;;;;;;;8.13;100.00;100971.59;5262686;28;20021;-67
2022/12/26 06:31:07;;;;;;;8.55;6.38;;;;;;;8.19;100.00;100970.72;5261876;28;20040;-67
2022/12/26 06:33:39;;;;;;;8.07;5.60;;;;;;;8.16;100.00;100965.53;5262821;28;20055;-68
2022/12/26 06:36:13;;;;;;;7.90;6.03;;;;;;;8.16;100.00;100986.28;5262765;28;20029;-67
2022/12/26 06:38:45;;;;;;;8.50;5.97;;;;;;;8.18;100.00;100985.44;5262535;28;20021;-68
2022/12/26 06:41:18;;;;;;;7.27;5.33;;;;;;;8.08;100.00;100983.69;5262504;28;20032;-67
2022/12/26 06:43:50;;;;;;;8.52;5.63;;;;;;;7.99;100.00;100984.56;5262478;28;20087;-67
2022/12/26 06:46:23;;;;;;;11.70;6.10;;;;;;;7.99;100.00;100989.75;5262514;28;20036;-67
2022/12/26 06:48:55;;;;;;;10.98;5.80;;;;;;;7.98;100.00;100976.75;5262468;28;20171;-67
2022/12/26 06:51:29;;;;;;;7.30;6.10;;;;;;;7.97;100.00;100982.81;5262397;28;20544;-67
2022/12/26 06:54:01;;;;;;;9.25;6.18;;;;;;;7.87;100.00;100984.53;5262997;28;20040;-67
2022/12/26 06:56:34;;;;;;;7.50;6.05;;;;;;;7.83;100.00;100975.03;5262279;28;20029;-68
2022/12/26 06:59:05;;;;;;;7.63;5.30;;;;;;;7.76;100.00;100971.56;5262301;28;20053;-68
2022/12/26 07:01:37;;;;;;;8.13;6.40;;;;;;;7.84;100.00;100979.34;5262817;28;20124;-67
2022/12/26 07:04:11;;;;;;;9.13;6.23;;;;;;;7.80;100.00;100982.81;5262367;28;20033;-66
2022/12/26 07:06:42;;;;;;;6.22;4.82;;;;;;;7.87;100.00;100973.28;5262102;28;20079;-66
2022/12/26 07:09:17;;;;;;;8.43;5.73;;;;;;;7.91;100.00;100988.88;5261512;28;20380;-67
2022/12/26 07:11:49;;;;;;;9.50;5.13;;;;;;;7.83;100.00;100975.03;5262003;28;20033;-67
2022/12/26 07:14:20;;;;;;;6.80;4.75;;;;;;;7.75;100.00;100971.56;5262204;28;20380;-67
2022/12/26 07:16:52;;;;;;;6.87;4.63;;;;;;;7.70;100.00;100976.72;5262864;28;20083;-67
2022/12/26 07:19:23;;;;;;;7.73;5.03;;;;;;;7.67;100.00;100977.56;5262308;28;20029;-67
2022/12/26 07:21:55;;;;;;;11.93;4.97;;;;;;;7.66;100.00;100975.88;5262072;28;20036;-67
2022/12/26 07:24:26;;;;;;;7.80;4.70;;;;;;;7.63;100.00;100981.03;5262731;28;20029;-68
2022/12/26 07:26:57;;;;;;;9.43;5.93;;;;;;;7.57;100.00;100981.03;5262282;28;20037;-68
2022/12/26 07:29:29;;;;;;;7.13;4.90;;;;;;;7.62;100.00;100989.69;5262030;28;20103;-67
2022/12/26 07:32:00;;;;;;;8.93;5.17;;;;;;;7.63;100.00;100993.13;5262208;28;20091;-67
2022/12/26 07:34:32;;;;;;;10.57;5.13;;;;;;;7.65;100.00;100984.50;5262029;28;20037;-67
2022/12/26 07:37:03;;;;;;;8.70;4.90;;;;;;;7.73;100.00;100979.34;5261081;28;20163;-67
2022/12/26 07:39:36;;;;;;;9.43;5.43;;;;;;;7.71;100.00;100994.03;5262443;28;20033;-68
2022/12/26 07:42:08;;;;;;;10.95;6.22;;;;;;;7.82;100.00;100997.53;5262914;28;20059;-67
2022/12/26 07:44:39;;;;;;;9.57;5.27;;;;;;;7.75;100.00;100995.75;5265905;28;20120;-67
2022/12/26 07:47:10;;;;;;;8.60;6.43;;;;;;;7.70;100.00;100996.63;5265958;28;20028;-67
2022/12/26 07:49:42;;;;;;;8.87;5.63;;;;;;;7.72;100.00;100989.72;5265162;28;20468;-68
2022/12/26 07:52:13;;;;;;;8.47;5.53;;;;;;;7.71;100.00;100987.97;5265973;28;20448;-67
2022/12/26 07:54:44;;;;;;;6.20;4.63;;;;;;;7.65;100.00;100989.69;5265453;28;20064;-67
2022/12/26 07:57:16;;;;;;;6.20;4.93;;;;;;;7.73;100.00;100997.50;5264775;28;20375;-67
2022/12/26 07:59:47;;;;;;;8.07;4.87;;;;;;;7.71;100.00;101011.31;5265814;28;20064;-67
2022/12/26 08:02:18;;;;;;;8.77;5.03;;;;;;;7.76;100.00;101005.28;5265628;28;20033;-68
2022/12/26 08:04:50;;;;;;;10.97;5.07;;;;;;;7.76;100.00;101001.81;5265713;28;20037;-68
2022/12/26 08:07:22;;;;;;;12.57;6.07;;;;;;;7.78;100.00;101010.50;5265274;28;20110;-68
2022/12/26 08:09:53;;;;;;;8.80;5.07;;;;;;;7.79;100.00;100994.91;5265570;28;20028;-68
2022/12/26 08:12:25;;;;;;;7.00;4.40;;;;;;;7.75;100.00;100997.50;5265046;28;20113;-68
2022/12/26 08:14:57;;;;;;;6.97;4.50;;;;;;;7.78;100.00;101008.75;5265160;28;20472;-67
2022/12/26 08:17:30;;;;;;;18.20;4.80;;;;;;;7.78;100.00;101006.16;5264306;28;20091;-68
2022/12/26 08:20:01;;;;;;;9.85;4.30;;;;;;;7.80;100.00;101012.22;5264942;28;20037;-68
2022/12/26 08:22:33;;;;;;;7.83;3.90;;;;;;;7.82;100.00;101004.44;5264938;28;20095;-67
2022/12/26 08:25:05;;;;;;;10.27;4.40;;;;;;;7.94;100.00;101014.84;5265582;28;20025;-69
2022/12/26 08:27:36;;;;;;;7.53;4.03;;;;;;;8.03;100.00;101009.66;5264026;28;20032;-68
2022/12/26 08:30:08;;;;;;;8.23;4.13;;;;;;;8.15;100.00;101008.81;5265179;28;20033;-68
2022/12/26 08:32:40;;;;;;;7.25;3.95;;;;;;;8.17;100.00;101014.00;5264731;28;20468;-69
2022/12/26 08:35:12;;;;;;;5.53;3.75;;;;;;;8.23;100.00;101016.59;5264938;28;20021;-68
2022/12/26 08:37:45;;;;;;;12.53;4.33;;;;;;;8.32;100.00;101018.31;5265044;28;20079;-66
2022/12/26 08:40:16;;;;;;;9.48;4.50;;;;;;;8.33;100.00;101026.13;5264121;28;20098;-67
2022/12/26 08:42:48;;;;;;;7.23;3.83;;;;;;;8.42;100.00;101034.78;5264486;28;20422;-67
2022/12/26 08:45:19;;;;;;;7.60;4.07;;;;;;;8.51;100.00;101033.09;5264310;28;20070;-67
2022/12/26 08:47:53;;;;;;;6.33;3.23;;;;;;;8.55;100.00;101034.81;5263630;28;20029;-67
2022/12/26 08:50:25;;;;;;;7.25;3.97;;;;;;;8.67;100.00;101048.69;5264291;28;20017;-67
2022/12/26 08:52:57;;;;;;;8.00;3.60;;;;;;;8.74;100.00;101050.38;5264372;28;20471;-67
2022/12/26 08:55:28;;;;;;;11.47;4.17;;;;;;;8.89;100.00;101052.13;5263116;28;20040;-67
2022/12/26 08:57:59;;;;;;;3.10;2.67;;;;;;;8.93;100.00;101054.72;5263933;28;20104;-67
2022/12/26 09:00:32;;;;;;;6.15;3.22;;;;;;;8.92;100.00;101055.59;5263684;28;20075;-69
2022/12/26 09:03:03;;;;;;;6.77;2.77;;;;;;;8.98;100.00;101046.88;5264148;28;20090;-68
2022/12/26 09:05:35;;;;;;;2.57;2.20;;;;;;;9.03;100.00;101065.09;5264243;28;20025;-68
2022/12/26 09:08:06;;;;;;;5.70;2.33;;;;;;;9.09;100.00;101052.94;5263818;28;20118;-67
2022/12/26 09:10:37;;;;;;;7.33;2.50;;;;;;;9.19;100.00;101068.53;5264013;28;20037;-67
2022/12/26 09:13:09;;;;;;;6.20;2.67;;;;;;;9.26;100.00;101065.06;5263047;28;20087;-67
2022/12/26 09:15:40;;;;;;;6.03;2.30;;;;;;;9.32;100.00;101065.00;5264178;28;20029;-67
2022/12/26 09:18:12;;;;;;;4.33;2.10;;;;;;;9.48;100.00;101065.81;5263616;28;20104;-66
2022/12/26 09:20:43;;;;;;;5.17;2.17;;;;;;;9.56;100.00;101061.44;5246580;28;20408;-67
2022/12/26 09:23:14;;;;;;;6.20;2.00;;;;;;;9.60;100.00;101063.19;5263628;28;20119;-67
2022/12/26 09:25:46;;;;;;;4.20;2.10;;;;;;;9.71;100.00;101065.75;5263674;28;20036;-67
2022/12/26 09:28:17;;;;;;;5.20;1.80;;;;;;;9.74;100.00;101073.53;5263940;28;20052;-68
2022/12/26 09:30:48;;;;;;;4.60;2.13;;;;;;;9.81;100.00;101076.97;5263609;28;20035;-68
2022/12/26 09:33:20;;;;;;;4.77;1.87;;;;;;;9.72;100.00;101090.03;5263543;28;20476;-67
2022/12/26 09:35:51;;;;;;;4.77;1.70;;;;;;;9.70;100.00;101090.03;5263360;28;20117;-68
2022/12/26 09:38:22;;;;;;;7.03;2.83;;;;;;;9.63;100.00;101083.13;5262704;28;20053;-67
2022/12/26 09:40:54;;;;;;;7.77;1.90;;;;;;;9.64;100.00;101100.47;5263559;28;20040;-66
2022/12/26 09:43:33;;;;;;;8.43;2.00;;;;;;;9.58;100.00;101095.28;5263615;28;20112;-67
2022/12/26 09:46:30;;;;;;;3.35;1.85;;;;;;;9.47;100.00;101114.41;5263293;28;20075;-69
2022/12/26 09:49:25;;;;;;;5.93;1.92;;;;;;;9.43;100.00;101110.06;5231496;28;20123;-68
2022/12/26 09:52:01;;;;;;;4.60;1.90;;;;;;;9.42;100.00;101115.31;5255404;28;20056;-67
2022/12/26 09:54:36;;;;;;;8.13;2.05;;;;;;;9.40;100.00;101106.63;5263222;28;20036;-69
2022/12/26 09:57:33;;;;;;;6.63;2.47;;;;;;;9.44;100.00;101118.75;5263125;28;20446;-69
2022/12/26 10:00:06;;;;;;;4.57;2.17;;;;;;;9.42;100.00;101121.38;5263651;28;20049;-68
2022/12/26 10:02:37;;;;;;;6.07;2.33;;;;;;;9.43;100.00;101123.06;5263103;28;20091;-68
2022/12/26 10:05:12;;;;;;;7.10;2.23;;;;;;;9.39;100.00;101139.59;5262756;28;20063;-69
2022/12/26 10:08:00;;;;;;;7.28;2.40;;;;;;;9.40;100.00;101124.81;5263200;28;20091;-68
2022/12/26 10:10:45;;;;;;;6.15;2.20;;;;;;;9.43;100.00;101133.47;5262864;28;20142;-68
2022/12/26 10:13:28;;;;;;;5.85;2.45;;;;;;;9.48;100.00;101134.38;5263174;28;20025;-69
2022/12/26 10:16:09;;;;;;;6.45;2.47;;;;;;;9.52;100.00;101142.16;5262711;28;20021;-68
2022/12/26 10:18:51;;;;;;;15.00;6.07;;;;;;;9.55;100.00;101144.75;5262845;28;20063;-69
2022/12/26 10:21:25;;;;;;;7.10;3.20;;;;;;;9.53;100.00;101143.88;5262847;28;20040;-68
2022/12/26 10:24:01;;;;;;;10.23;4.45;;;;;;;9.54;100.00;101137.81;5262817;28;20052;-69
2022/12/26 10:26:38;;;;;;;11.70;6.07;;;;;;;9.53;100.00;101144.75;5263179;28;20053;-67
2022/12/26 10:29:12;;;;;;;21.40;11.30;;;;;;;9.52;100.00;101145.63;5262768;28;20029;-67
2022/12/26 10:31:59;;;;;;;17.20;12.45;;;;;;;9.49;100.00;101143.88;5262407;28;20033;-73
2022/12/26 10:34:51;;;;;;;19.08;12.90;;;;;;;9.54;100.00;101140.41;5262259;28;20082;-70
2022/12/26 10:37:39;;;;;;;6.35;3.15;;;;;;;9.48;100.00;101178.59;5262376;28;20132;-67
2022/12/26 10:40:11;;;;;;;6.15;2.72;;;;;;;8.79;100.00;101195.94;5262369;28;20029;-67
2022/12/26 10:42:45;;;;;;;5.13;1.47;;;;;;;8.14;100.00;101211.34;5262302;28;20103;-69
2022/12/26 10:45:46;;;;;;;10.60;3.90;;;;;;;7.76;100.00;101209.41;5262744;28;20029;-67
2022/12/26 10:48:17;;;;;;;7.95;3.42;;;;;;;7.41;100.00;101216.13;5238542;28;20059;-67
2022/12/26 10:50:49;;;;;;;7.90;2.70;;;;;;;7.32;100.00;101212.59;5260967;28;20033;-66
2022/12/26 10:53:20;;;;;;;6.37;2.30;;;;;;;7.23;100.00;101214.28;5260762;28;20036;-66
2022/12/26 10:55:51;;;;;;;9.23;2.60;;;;;;;7.23;100.00;101219.47;5261962;28;20033;-67
2022/12/26 10:58:29;;;;;;;13.70;3.77;;;;;;;7.19;100.00;101228.06;5262018;28;20036;-68
2022/12/26 11:01:26;;;;;;;10.75;2.90;;;;;;;7.19;100.00;101234.97;5261470;28;20469;-67
2022/12/26 11:04:22;;;;;;;8.90;3.05;;;;;;;7.16;100.00;101238.41;5261980;28;20029;-68
2022/12/26 11:06:55;;;;;;;13.07;3.95;;;;;;;7.18;100.00;101247.09;5262633;28;20409;-67
2022/12/26 11:09:41;;;;;;;10.52;3.50;;;;;;;7.24;100.00;101239.31;5261891;28;20028;-68
2022/12/26 11:12:38;;;;;;;13.85;3.55;;;;;;;7.29;100.00;101239.38;5262357;28;20021;-68
2022/12/26 11:15:19;;;;;;;15.50;4.45;;;;;;;7.32;100.00;101249.78;5261853;28;20025;-68
2022/12/26 11:17:52;;;;;;;11.32;3.13;;;;;;;7.32;100.00;101254.09;5259827;28;20044;-68
2022/12/26 11:20:27;;;;;;;9.23;2.97;;;;;;;7.33;100.00;101261.91;5261442;28;20105;-68
2022/12/26 11:23:23;;;;;;;14.98;4.05;;;;;;;7.39;100.00;101274.03;5262198;28;20440;-66
2022/12/26 11:25:57;;;;;;;12.93;3.50;;;;;;;7.45;100.00;101262.00;5254363;28;20388;-67
2022/12/26 11:28:34;;;;;;;12.23;3.63;;;;;;;7.39;100.00;101267.13;5261897;28;20037;-68
2022/12/26 11:31:17;;;;;;;14.68;3.53;;;;;;;7.34;100.00;101278.31;5261734;28;20086;-68
2022/12/26 11:33:49;;;;;;;9.93;3.03;;;;;;;7.35;100.00;101282.66;5262094;28;20029;-68
2022/12/26 11:36:26;;;;;;;18.27;4.27;;;;;;;7.37;100.00;101276.59;5261871;28;20031;-68
2022/12/26 11:39:01;;;;;;;15.52;4.53;;;;;;;7.38;100.00;101272.31;5261872;28;20110;-68
2022/12/26 11:41:42;;;;;;;15.05;3.72;;;;;;;7.47;100.00;101275.84;5261560;28;20321;-69
2022/12/26 11:44:19;;;;;;;11.82;3.65;;;;;;;7.56;100.00;101279.38;5260895;28;20029;-71
2022/12/26 11:46:55;;;;;;;10.82;3.10;;;;;;;7.47;100.00;101286.22;5261161;28;20040;-68
2022/12/26 11:49:33;;;;;;;16.75;4.15;;;;;;;7.47;100.00;101288.81;5262018;28;20033;-68
2022/12/26 11:52:36;;;;;;;12.65;4.40;;;;;;;7.70;100.00;101298.50;5261350;28;20032;-68
2022/12/26 11:55:29;;;;;;;14.23;2.92;;;;;;;7.90;96.23;101295.16;5261539;28;20025;-70
2022/12/26 11:58:05;;;;;;;12.30;3.65;;;;;;;8.07;95.18;101297.88;5262236;28;20333;-66
2022/12/26 12:00:39;;;;;;;12.77;4.40;;;;;;;8.65;92.02;101294.72;5262137;28;20379;-68
2022/12/26 12:03:23;;;;;;;14.32;5.90;;;;;;;8.92;88.17;101302.56;5261385;28;20436;-67
2022/12/26 12:06:05;;;;;;;12.30;4.25;;;;;;;8.97;90.07;101309.50;5261777;28;20029;-67
2022/12/26 12:08:36;;;;;;;15.20;4.78;;;;;;;8.52;88.11;101315.44;5261164;28;20033;-66
2022/12/26 12:11:55;;;;;;;9.67;2.90;;;;;;;8.21;89.58;101315.25;5261224;28;20395;-67
2022/12/26 12:14:32;;;;;;;11.10;3.33;;;;;;;7.88;89.04;101328.91;5248039;28;20044;-68
2022/12/26 12:17:22;;;;;;;11.75;3.83;;;;;;;7.91;90.45;101325.47;5261375;28;20033;-66
2022/12/26 12:20:11;;;;;;;10.88;4.88;;;;;;;7.74;91.20;101326.19;5261205;28;20449;-66
2022/12/26 12:22:58;;;;;;;11.93;3.92;;;;;;;7.65;92.03;101328.75;5261649;28;20131;-67
2022/12/26 12:25:29;;;;;;;11.65;3.88;;;;;;;7.49;92.28;101322.56;5261310;28;20037;-67
2022/12/26 12:28:12;;;;;;;14.00;4.40;;;;;;;7.54;93.85;101322.59;5259592;28;20051;-67
2022/12/26 12:30:49;;;;;;;16.13;8.10;;;;;;;7.37;93.78;101320.69;5264367;28;20510;-68
2022/12/26 12:33:35;;;;;;;15.18;6.13;;;;;;;7.52;94.09;101325.16;5265147;28;20374;-68
2022/12/26 12:36:16;;;;;;;12.02;5.03;;;;;;;7.51;93.53;101326.03;5264912;28;20436;-68
2022/12/26 12:39:00;;;;;;;11.10;3.20;;;;;;;7.41;93.12;101342.38;5264644;28;20029;-68
2022/12/26 12:42:33;;;;;;;13.32;5.10;;;;;;;7.32;94.53;101331.91;5263785;28;20060;-68
2022/12/26 12:45:18;;;;;;;9.27;3.85;;;;;;;7.38;95.89;101339.75;5200599;28;20030;-67
2022/12/26 12:47:53;;;;;;;23.17;3.85;;;;;;;7.32;92.75;101332.75;5264422;28;20138;-68
2022/12/26 12:50:41;;;;;;;8.18;2.78;;;;;;;7.14;89.28;101353.34;5264457;28;20078;-66
2022/12/26 12:53:13;;;;;;;8.43;2.40;;;;;;;7.18;89.08;101349.91;5264548;28;20021;-66
2022/12/26 12:55:53;;;;;;;9.30;2.83;;;;;;;7.18;88.55;101360.28;5264893;28;20350;-67
2022/12/26 12:58:58;;;;;;;11.45;3.17;;;;;;;7.04;88.92;101373.97;5264365;28;20502;-67
2022/12/26 13:01:38;;;;;;;5.88;2.13;;;;;;;6.91;89.36;101372.97;5262860;28;20488;-67
2022/12/26 13:04:28;;;;;;;11.23;2.42;;;;;;;6.92;88.17;101376.41;5264798;28;20029;-67
2022/12/26 13:07:06;;;;;;;7.78;2.42;;;;;;;6.82;87.96;101365.06;5263957;28;20040;-68
2022/12/26 13:09:48;;;;;;;9.40;2.22;;;;;;;6.93;87.94;101368.66;5263389;28;20036;-68
2022/12/26 13:12:33;;;;;;;4.87;2.23;;;;;;;6.95;86.88;101368.66;5264151;28;20025;-67
2022/12/26 13:15:22;;;;;;;7.18;3.50;;;;;;;7.01;86.37;101360.97;5263968;28;20424;-67
2022/12/26 13:18:09;;;;;;;9.45;3.00;;;;;;;7.11;85.67;101369.72;5263587;28;20111;-67
2022/12/26 13:21:05;;;;;;;7.75;2.40;;;;;;;7.25;85.93;101369.88;5263685;28;20380;-67
2022/12/26 13:26:42;;;;;;;9.65;3.42;;;;;;;7.25;85.05;101362.09;5264007;28;20041;-67
2022/12/26 13:29:23;;;;;;;6.88;1.92;;;;;;;7.09;85.29;101376.63;5263878;28;20062;-69
2022/12/26 13:31:57;;;;;;;6.90;2.47;;;;;;;6.99;85.65;101380.81;5263681;28;20036;-67
2022/12/26 13:34:29;;;;;;;9.02;2.53;;;;;;;6.94;87.49;101385.09;5263391;28;20033;-67
2022/12/26 13:37:00;;;;;;;7.18;2.65;;;;;;;6.79;87.67;101392.66;5263462;28;20029;-67
2022/12/26 13:39:35;;;;;;;6.07;1.93;;;;;;;6.79;88.45;101390.94;5262060;28;20051;-67
2022/12/26 13:45:35;;;;;;;10.80;3.15;;;;;;;6.88;89.78;101390.19;5263081;28;20056;-66
2022/12/26 13:48:15;;;;;;;7.45;2.20;;;;;;;6.90;88.79;101401.44;5263220;28;20035;-67
2022/12/26 13:51:00;;;;;;;4.53;2.00;;;;;;;7.16;89.11;101399.16;5263519;28;20033;-66
2022/12/26 13:53:32;;;;;;;8.25;1.98;;;;;;;7.28;88.75;101399.28;5263103;28;20033;-66
2022/12/26 13:56:29;;;;;;;8.90;1.90;;;;;;;7.46;85.86;101406.38;5262347;28;20106;-66
2022/12/26 13:59:15;;;;;;;6.13;2.28;;;;;;;7.44;82.15;101415.03;5261282;28;20125;-67
2022/12/26 14:01:57;;;;;;;5.45;2.40;;;;;;;7.93;77.53;101402.47;5263247;28;20087;-67
2022/12/26 14:04:47;;;;;;;6.72;1.55;;;;;;;8.02;77.45;101415.53;5262975;28;20037;-67
2022/12/26 14:07:43;;;;;;;10.02;1.77;;;;;;;7.29;78.25;101421.78;5262997;28;20051;-67
2022/12/26 14:10:37;;;;;;;5.15;1.70;;;;;;;6.78;80.58;101425.50;5261857;28;20122;-67